sensor_id;sensor_type;location;lat;lon;timestamp;P1;durP1;ratioP1;P2;durP2;ratioP2
36659;SDS011;22654;51.054;3.654;2023-01-16T00:00:52;0.80;;;0.80;;
36659;SDS011;22654;51.054;3.654;2023-01-16T00:03:19;0.80;;;0.80;;
36659;SDS011;22654;51.054;3.654;2023-01-16T00:05:45;0.80;;;0.80;;
36659;SDS011;22654;51.054;3.654;2023-01-16T00:08:11;0.80;;;0.80;;
36659;SDS011;22654;51.054;3.654;2023-01-16T00:10:37;0.75;;;0.75;;
36659;SDS011;22654;51.054;3.654;2023-01-16T00:13:03;0.80;;;0.80;;
36659;SDS011;22654;51.054;3.654;2023-01-16T00:15:30;0.90;;;0.90;;
36659;SDS011;22654;51.054;3.654;2023-01-16T00:17:56;0.80;;;0.80;;
36659;SDS011;22654;51.054;3.654;2023-01-16T00:20:22;0.90;;;0.90;;
36659;SDS011;22654;51.054;3.654;2023-01-16T00:22:48;0.73;;;0.73;;
36659;SDS011;22654;51.054;3.654;2023-01-16T00:25:14;0.90;;;0.90;;
36659;SDS011;22654;51.054;3.654;2023-01-16T00:27:39;0.90;;;0.90;;
36659;SDS011;22654;51.054;3.654;2023-01-16T00:30:06;0.80;;;0.80;;
36659;SDS011;22654;51.054;3.654;2023-01-16T00:32:32;0.80;;;0.80;;
36659;SDS011;22654;51.054;3.654;2023-01-16T00:34:58;0.88;;;0.88;;
36659;SDS011;22654;51.054;3.654;2023-01-16T00:37:24;0.80;;;0.80;;
36659;SDS011;22654;51.054;3.654;2023-01-16T00:39:50;0.80;;;0.80;;
36659;SDS011;22654;51.054;3.654;2023-01-16T00:42:17;0.80;;;0.80;;
36659;SDS011;22654;51.054;3.654;2023-01-16T00:44:43;3.03;;;0.82;;
36659;SDS011;22654;51.054;3.654;2023-01-16T00:47:09;0.70;;;0.70;;
36659;SDS011;22654;51.054;3.654;2023-01-16T00:49:35;0.60;;;0.60;;
36659;SDS011;22654;51.054;3.654;2023-01-16T00:52:01;1.30;;;1.13;;
36659;SDS011;22654;51.054;3.654;2023-01-16T00:54:28;0.60;;;0.60;;
36659;SDS011;22654;51.054;3.654;2023-01-16T00:56:53;0.70;;;0.70;;
36659;SDS011;22654;51.054;3.654;2023-01-16T00:59:19;0.70;;;0.70;;
36659;SDS011;22654;51.054;3.654;2023-01-16T01:01:45;0.77;;;0.77;;
36659;SDS011;22654;51.054;3.654;2023-01-16T01:04:11;2.60;;;1.77;;
36659;SDS011;22654;51.054;3.654;2023-01-16T01:06:37;1.15;;;1.05;;
36659;SDS011;22654;51.054;3.654;2023-01-16T01:09:04;0.70;;;0.70;;
36659;SDS011;22654;51.054;3.654;2023-01-16T01:11:30;0.70;;;0.70;;
36659;SDS011;22654;51.054;3.654;2023-01-16T01:13:56;0.77;;;0.77;;
36659;SDS011;22654;51.054;3.654;2023-01-16T01:16:23;0.75;;;0.75;;
36659;SDS011;22654;51.054;3.654;2023-01-16T01:18:49;0.80;;;0.80;;
36659;SDS011;22654;51.054;3.654;2023-01-16T01:21:15;0.70;;;0.70;;
36659;SDS011;22654;51.054;3.654;2023-01-16T01:23:41;0.70;;;0.70;;
36659;SDS011;22654;51.054;3.654;2023-01-16T01:26:08;7.65;;;1.20;;
36659;SDS011;22654;51.054;3.654;2023-01-16T01:28:35;3.75;;;1.67;;
36659;SDS011;22654;51.054;3.654;2023-01-16T01:31:02;0.70;;;0.70;;
36659;SDS011;22654;51.054;3.654;2023-01-16T01:33:29;1.00;;;1.00;;
36659;SDS011;22654;51.054;3.654;2023-01-16T01:35:55;0.70;;;0.70;;
36659;SDS011;22654;51.054;3.654;2023-01-16T01:38:24;0.60;;;0.60;;
36659;SDS011;22654;51.054;3.654;2023-01-16T01:40:49;0.68;;;0.68;;
36659;SDS011;22654;51.054;3.654;2023-01-16T01:43:16;0.95;;;0.95;;
36659;SDS011;22654;51.054;3.654;2023-01-16T01:45:43;0.70;;;0.70;;
36659;SDS011;22654;51.054;3.654;2023-01-16T01:48:20;2.90;;;1.05;;
36659;SDS011;22654;51.054;3.654;2023-01-16T01:50:52;0.70;;;0.70;;
36659;SDS011;22654;51.054;3.654;2023-01-16T01:53:27;0.70;;;0.70;;
36659;SDS011;22654;51.054;3.654;2023-01-16T01:55:55;1.25;;;1.15;;
36659;SDS011;22654;51.054;3.654;2023-01-16T01:58:25;2.47;;;1.30;;
36659;SDS011;22654;51.054;3.654;2023-01-16T02:00:53;2.20;;;1.23;;
36659;SDS011;22654;51.054;3.654;2023-01-16T02:03:25;5.72;;;0.93;;
36659;SDS011;22654;51.054;3.654;2023-01-16T02:05:54;1.20;;;1.10;;
36659;SDS011;22654;51.054;3.654;2023-01-16T02:08:26;0.88;;;0.88;;
36659;SDS011;22654;51.054;3.654;2023-01-16T02:11:04;1.02;;;1.02;;
36659;SDS011;22654;51.054;3.654;2023-01-16T02:13:33;2.40;;;1.42;;
36659;SDS011;22654;51.054;3.654;2023-01-16T02:16:04;0.82;;;0.82;;
36659;SDS011;22654;51.054;3.654;2023-01-16T02:19:03;0.70;;;0.70;;
36659;SDS011;22654;51.054;3.654;2023-01-16T02:22:00;2.00;;;1.23;;
36659;SDS011;22654;51.054;3.654;2023-01-16T02:30:14;0.70;;;0.70;;
36659;SDS011;22654;51.054;3.654;2023-01-16T02:33:21;0.90;;;0.90;;
36659;SDS011;22654;51.054;3.654;2023-01-16T02:38:20;8.60;;;1.35;;
36659;SDS011;22654;51.054;3.654;2023-01-16T02:47:10;1.45;;;1.35;;
36659;SDS011;22654;51.054;3.654;2023-01-16T02:52:38;2.83;;;0.80;;
36659;SDS011;22654;51.054;3.654;2023-01-16T02:55:29;1.50;;;1.13;;
36659;SDS011;22654;51.054;3.654;2023-01-16T02:57:59;0.80;;;0.80;;
36659;SDS011;22654;51.054;3.654;2023-01-16T03:00:27;0.80;;;0.80;;
36659;SDS011;22654;51.054;3.654;2023-01-16T03:02:54;0.65;;;0.65;;
36659;SDS011;22654;51.054;3.654;2023-01-16T03:05:20;1.88;;;1.77;;
36659;SDS011;22654;51.054;3.654;2023-01-16T03:33:43;0.80;;;0.80;;
36659;SDS011;22654;51.054;3.654;2023-01-16T03:36:23;0.80;;;0.80;;
36659;SDS011;22654;51.054;3.654;2023-01-16T03:38:53;2.72;;;1.05;;
36659;SDS011;22654;51.054;3.654;2023-01-16T03:41:21;1.60;;;0.95;;
36659;SDS011;22654;51.054;3.654;2023-01-16T03:43:51;1.73;;;1.58;;
36659;SDS011;22654;51.054;3.654;2023-01-16T03:46:25;0.60;;;0.60;;
36659;SDS011;22654;51.054;3.654;2023-01-16T03:51:27;0.77;;;0.77;;
36659;SDS011;22654;51.054;3.654;2023-01-16T03:54:02;2.80;;;1.30;;
36659;SDS011;22654;51.054;3.654;2023-01-16T03:56:40;1.17;;;1.08;;
36659;SDS011;22654;51.054;3.654;2023-01-16T03:59:13;2.75;;;1.80;;
36659;SDS011;22654;51.054;3.654;2023-01-16T04:01:45;0.95;;;0.95;;
36659;SDS011;22654;51.054;3.654;2023-01-16T04:04:24;3.97;;;1.40;;
36659;SDS011;22654;51.054;3.654;2023-01-16T04:07:08;6.65;;;1.70;;
36659;SDS011;22654;51.054;3.654;2023-01-16T04:12:10;4.82;;;1.92;;
36659;SDS011;22654;51.054;3.654;2023-01-16T04:14:40;7.65;;;2.38;;
36659;SDS011;22654;51.054;3.654;2023-01-16T04:17:07;4.43;;;1.33;;
36659;SDS011;22654;51.054;3.654;2023-01-16T04:19:40;0.77;;;0.77;;
36659;SDS011;22654;51.054;3.654;2023-01-16T04:22:07;3.03;;;1.40;;
36659;SDS011;22654;51.054;3.654;2023-01-16T04:24:43;2.20;;;1.25;;
36659;SDS011;22654;51.054;3.654;2023-01-16T04:27:09;5.22;;;1.33;;
36659;SDS011;22654;51.054;3.654;2023-01-16T04:29:35;0.60;;;0.60;;
36659;SDS011;22654;51.054;3.654;2023-01-16T04:32:01;0.75;;;0.75;;
36659;SDS011;22654;51.054;3.654;2023-01-16T04:34:27;2.83;;;0.95;;
36659;SDS011;22654;51.054;3.654;2023-01-16T04:36:52;0.80;;;0.80;;
36659;SDS011;22654;51.054;3.654;2023-01-16T04:39:18;3.55;;;1.08;;
36659;SDS011;22654;51.054;3.654;2023-01-16T04:41:44;2.50;;;0.90;;
36659;SDS011;22654;51.054;3.654;2023-01-16T04:44:15;1.52;;;1.40;;
36659;SDS011;22654;51.054;3.654;2023-01-16T04:46:41;0.80;;;0.80;;
36659;SDS011;22654;51.054;3.654;2023-01-16T04:49:08;1.00;;;1.00;;
36659;SDS011;22654;51.054;3.654;2023-01-16T04:51:34;0.77;;;0.77;;
36659;SDS011;22654;51.054;3.654;2023-01-16T04:54:02;0.60;;;0.60;;
36659;SDS011;22654;51.054;3.654;2023-01-16T04:56:29;1.83;;;1.00;;
36659;SDS011;22654;51.054;3.654;2023-01-16T04:58:55;1.10;;;1.10;;
36659;SDS011;22654;51.054;3.654;2023-01-16T05:01:20;1.48;;;0.85;;
36659;SDS011;22654;51.054;3.654;2023-01-16T05:03:47;1.58;;;1.33;;
36659;SDS011;22654;51.054;3.654;2023-01-16T05:06:13;0.80;;;0.80;;
36659;SDS011;22654;51.054;3.654;2023-01-16T05:08:39;2.03;;;1.23;;
36659;SDS011;22654;51.054;3.654;2023-01-16T05:11:05;1.27;;;1.10;;
36659;SDS011;22654;51.054;3.654;2023-01-16T05:13:31;0.70;;;0.70;;
36659;SDS011;22654;51.054;3.654;2023-01-16T05:15:57;2.65;;;1.25;;
36659;SDS011;22654;51.054;3.654;2023-01-16T05:18:23;0.63;;;0.63;;
36659;SDS011;22654;51.054;3.654;2023-01-16T05:20:49;0.90;;;0.90;;
36659;SDS011;22654;51.054;3.654;2023-01-16T05:23:15;2.08;;;1.17;;
36659;SDS011;22654;51.054;3.654;2023-01-16T05:25:41;1.67;;;1.58;;
36659;SDS011;22654;51.054;3.654;2023-01-16T05:28:07;4.55;;;1.15;;
36659;SDS011;22654;51.054;3.654;2023-01-16T05:30:36;2.90;;;0.85;;
36659;SDS011;22654;51.054;3.654;2023-01-16T05:33:02;0.82;;;0.82;;
36659;SDS011;22654;51.054;3.654;2023-01-16T05:35:29;0.93;;;0.93;;
36659;SDS011;22654;51.054;3.654;2023-01-16T05:37:55;0.98;;;0.98;;
36659;SDS011;22654;51.054;3.654;2023-01-16T05:40:21;2.45;;;1.13;;
36659;SDS011;22654;51.054;3.654;2023-01-16T05:42:47;0.98;;;0.98;;
36659;SDS011;22654;51.054;3.654;2023-01-16T05:45:13;1.50;;;1.13;;
36659;SDS011;22654;51.054;3.654;2023-01-16T05:47:39;1.58;;;0.98;;
36659;SDS011;22654;51.054;3.654;2023-01-16T05:50:05;4.05;;;3.00;;
36659;SDS011;22654;51.054;3.654;2023-01-16T05:52:31;2.50;;;0.70;;
36659;SDS011;22654;51.054;3.654;2023-01-16T05:54:57;1.15;;;1.05;;
36659;SDS011;22654;51.054;3.654;2023-01-16T05:57:23;1.25;;;1.23;;
36659;SDS011;22654;51.054;3.654;2023-01-16T05:59:50;5.45;;;1.00;;
36659;SDS011;22654;51.054;3.654;2023-01-16T06:02:16;0.80;;;0.80;;
36659;SDS011;22654;51.054;3.654;2023-01-16T06:04:43;1.00;;;0.93;;
36659;SDS011;22654;51.054;3.654;2023-01-16T06:07:09;2.42;;;1.20;;
36659;SDS011;22654;51.054;3.654;2023-01-16T06:09:36;0.85;;;0.85;;
36659;SDS011;22654;51.054;3.654;2023-01-16T06:12:01;0.70;;;0.70;;
36659;SDS011;22654;51.054;3.654;2023-01-16T06:14:27;0.93;;;0.93;;
36659;SDS011;22654;51.054;3.654;2023-01-16T06:16:53;1.85;;;0.80;;
36659;SDS011;22654;51.054;3.654;2023-01-16T06:19:19;1.05;;;0.95;;
36659;SDS011;22654;51.054;3.654;2023-01-16T06:21:45;0.90;;;0.90;;
36659;SDS011;22654;51.054;3.654;2023-01-16T06:24:11;1.10;;;0.90;;
36659;SDS011;22654;51.054;3.654;2023-01-16T06:26:37;1.85;;;1.33;;
36659;SDS011;22654;51.054;3.654;2023-01-16T06:29:03;1.80;;;1.70;;
36659;SDS011;22654;51.054;3.654;2023-01-16T06:31:29;0.70;;;0.70;;
36659;SDS011;22654;51.054;3.654;2023-01-16T06:33:55;1.50;;;0.95;;
36659;SDS011;22654;51.054;3.654;2023-01-16T06:36:21;0.70;;;0.70;;
36659;SDS011;22654;51.054;3.654;2023-01-16T06:38:47;0.60;;;0.60;;
36659;SDS011;22654;51.054;3.654;2023-01-16T06:41:13;0.90;;;0.90;;
36659;SDS011;22654;51.054;3.654;2023-01-16T06:43:39;1.02;;;0.73;;
36659;SDS011;22654;51.054;3.654;2023-01-16T06:46:05;1.10;;;1.10;;
36659;SDS011;22654;51.054;3.654;2023-01-16T06:48:30;1.15;;;0.80;;
36659;SDS011;22654;51.054;3.654;2023-01-16T06:50:57;0.60;;;0.60;;
36659;SDS011;22654;51.054;3.654;2023-01-16T06:53:24;1.17;;;1.02;;
36659;SDS011;22654;51.054;3.654;2023-01-16T06:55:50;0.70;;;0.70;;
36659;SDS011;22654;51.054;3.654;2023-01-16T06:58:16;0.80;;;0.80;;
36659;SDS011;22654;51.054;3.654;2023-01-16T07:00:42;0.70;;;0.70;;
36659;SDS011;22654;51.054;3.654;2023-01-16T07:03:08;1.65;;;0.80;;
36659;SDS011;22654;51.054;3.654;2023-01-16T07:05:34;0.70;;;0.70;;
36659;SDS011;22654;51.054;3.654;2023-01-16T07:08:01;0.70;;;0.70;;
36659;SDS011;22654;51.054;3.654;2023-01-16T07:10:27;0.60;;;0.60;;
36659;SDS011;22654;51.054;3.654;2023-01-16T07:12:53;0.70;;;0.70;;
36659;SDS011;22654;51.054;3.654;2023-01-16T07:15:20;0.80;;;0.80;;
36659;SDS011;22654;51.054;3.654;2023-01-16T07:18:05;0.70;;;0.70;;
36659;SDS011;22654;51.054;3.654;2023-01-16T07:20:51;0.70;;;0.70;;
36659;SDS011;22654;51.054;3.654;2023-01-16T07:23:40;1.15;;;0.93;;
36659;SDS011;22654;51.054;3.654;2023-01-16T07:26:12;0.80;;;0.80;;
36659;SDS011;22654;51.054;3.654;2023-01-16T07:28:45;0.70;;;0.70;;
36659;SDS011;22654;51.054;3.654;2023-01-16T07:31:13;0.63;;;0.63;;
36659;SDS011;22654;51.054;3.654;2023-01-16T07:33:39;0.80;;;0.80;;
36659;SDS011;22654;51.054;3.654;2023-01-16T07:36:05;0.95;;;0.93;;
36659;SDS011;22654;51.054;3.654;2023-01-16T07:38:31;0.75;;;0.73;;
36659;SDS011;22654;51.054;3.654;2023-01-16T07:40:57;1.00;;;0.90;;
36659;SDS011;22654;51.054;3.654;2023-01-16T07:43:23;0.60;;;0.60;;
36659;SDS011;22654;51.054;3.654;2023-01-16T07:45:52;1.30;;;1.23;;
36659;SDS011;22654;51.054;3.654;2023-01-16T07:48:19;0.70;;;0.70;;
36659;SDS011;22654;51.054;3.654;2023-01-16T07:50:49;0.80;;;0.80;;
36659;SDS011;22654;51.054;3.654;2023-01-16T07:53:19;1.00;;;1.00;;
36659;SDS011;22654;51.054;3.654;2023-01-16T07:55:49;0.73;;;0.73;;
36659;SDS011;22654;51.054;3.654;2023-01-16T07:58:17;0.80;;;0.80;;
36659;SDS011;22654;51.054;3.654;2023-01-16T08:00:43;0.70;;;0.70;;
36659;SDS011;22654;51.054;3.654;2023-01-16T08:03:09;0.70;;;0.70;;
36659;SDS011;22654;51.054;3.654;2023-01-16T08:05:36;0.68;;;0.68;;
36659;SDS011;22654;51.054;3.654;2023-01-16T08:08:02;0.60;;;0.60;;
36659;SDS011;22654;51.054;3.654;2023-01-16T08:10:29;2.47;;;1.95;;
36659;SDS011;22654;51.054;3.654;2023-01-16T08:12:54;5.05;;;0.90;;
36659;SDS011;22654;51.054;3.654;2023-01-16T08:15:20;1.35;;;1.25;;
36659;SDS011;22654;51.054;3.654;2023-01-16T08:17:46;0.70;;;0.70;;
36659;SDS011;22654;51.054;3.654;2023-01-16T08:20:12;0.70;;;0.70;;
36659;SDS011;22654;51.054;3.654;2023-01-16T08:22:42;0.70;;;0.70;;
36659;SDS011;22654;51.054;3.654;2023-01-16T08:25:12;0.60;;;0.60;;
36659;SDS011;22654;51.054;3.654;2023-01-16T08:27:39;0.70;;;0.70;;
36659;SDS011;22654;51.054;3.654;2023-01-16T08:30:05;0.60;;;0.60;;
36659;SDS011;22654;51.054;3.654;2023-01-16T08:32:32;0.70;;;0.70;;
36659;SDS011;22654;51.054;3.654;2023-01-16T08:34:57;0.80;;;0.80;;
36659;SDS011;22654;51.054;3.654;2023-01-16T08:37:23;1.13;;;0.90;;
36659;SDS011;22654;51.054;3.654;2023-01-16T08:39:49;0.70;;;0.70;;
36659;SDS011;22654;51.054;3.654;2023-01-16T08:42:15;0.60;;;0.60;;
36659;SDS011;22654;51.054;3.654;2023-01-16T08:45:00;0.60;;;0.60;;
36659;SDS011;22654;51.054;3.654;2023-01-16T08:47:44;0.63;;;0.63;;
36659;SDS011;22654;51.054;3.654;2023-01-16T08:50:29;0.70;;;0.70;;
36659;SDS011;22654;51.054;3.654;2023-01-16T08:53:13;0.70;;;0.70;;
36659;SDS011;22654;51.054;3.654;2023-01-16T08:55:39;0.80;;;0.80;;
36659;SDS011;22654;51.054;3.654;2023-01-16T08:58:05;0.70;;;0.70;;
36659;SDS011;22654;51.054;3.654;2023-01-16T09:00:31;0.60;;;0.60;;
36659;SDS011;22654;51.054;3.654;2023-01-16T09:02:58;0.65;;;0.65;;
36659;SDS011;22654;51.054;3.654;2023-01-16T09:05:26;0.60;;;0.60;;
36659;SDS011;22654;51.054;3.654;2023-01-16T09:07:53;0.60;;;0.60;;
36659;SDS011;22654;51.054;3.654;2023-01-16T09:10:19;0.70;;;0.70;;
36659;SDS011;22654;51.054;3.654;2023-01-16T09:12:45;1.30;;;0.80;;
36659;SDS011;22654;51.054;3.654;2023-01-16T09:15:29;1.10;;;0.88;;
36659;SDS011;22654;51.054;3.654;2023-01-16T09:17:56;0.82;;;0.80;;
36659;SDS011;22654;51.054;3.654;2023-01-16T09:20:22;0.95;;;0.95;;
36659;SDS011;22654;51.054;3.654;2023-01-16T09:22:47;0.63;;;0.63;;
36659;SDS011;22654;51.054;3.654;2023-01-16T09:25:13;0.98;;;0.90;;
36659;SDS011;22654;51.054;3.654;2023-01-16T09:27:39;1.02;;;0.95;;
36659;SDS011;22654;51.054;3.654;2023-01-16T09:30:05;0.60;;;0.60;;
36659;SDS011;22654;51.054;3.654;2023-01-16T09:32:32;1.77;;;0.88;;
36659;SDS011;22654;51.054;3.654;2023-01-16T09:34:59;0.82;;;0.82;;
36659;SDS011;22654;51.054;3.654;2023-01-16T09:37:24;0.60;;;0.60;;
36659;SDS011;22654;51.054;3.654;2023-01-16T09:39:50;0.70;;;0.70;;
36659;SDS011;22654;51.054;3.654;2023-01-16T09:45:34;0.60;;;0.60;;
36659;SDS011;22654;51.054;3.654;2023-01-16T09:48:02;0.60;;;0.60;;
36659;SDS011;22654;51.054;3.654;2023-01-16T09:53:03;0.60;;;0.60;;
36659;SDS011;22654;51.054;3.654;2023-01-16T09:55:53;0.90;;;0.90;;
36659;SDS011;22654;51.054;3.654;2023-01-16T09:58:43;0.70;;;0.70;;
36659;SDS011;22654;51.054;3.654;2023-01-16T10:01:22;0.60;;;0.60;;
36659;SDS011;22654;51.054;3.654;2023-01-16T10:03:57;1.50;;;0.80;;
36659;SDS011;22654;51.054;3.654;2023-01-16T10:06:56;0.73;;;0.73;;
36659;SDS011;22654;51.054;3.654;2023-01-16T10:09:47;0.77;;;0.77;;
36659;SDS011;22654;51.054;3.654;2023-01-16T10:12:18;0.80;;;0.80;;
36659;SDS011;22654;51.054;3.654;2023-01-16T10:20:11;0.90;;;0.90;;
36659;SDS011;22654;51.054;3.654;2023-01-16T10:31:29;1.70;;;0.90;;
36659;SDS011;22654;51.054;3.654;2023-01-16T10:34:09;0.80;;;0.80;;
36659;SDS011;22654;51.054;3.654;2023-01-16T10:36:48;0.93;;;0.90;;
36659;SDS011;22654;51.054;3.654;2023-01-16T10:41:49;1.48;;;1.08;;
36659;SDS011;22654;51.054;3.654;2023-01-16T10:44:38;1.05;;;1.05;;
36659;SDS011;22654;51.054;3.654;2023-01-16T10:47:28;0.90;;;0.90;;
36659;SDS011;22654;51.054;3.654;2023-01-16T10:50:32;1.40;;;1.00;;
36659;SDS011;22654;51.054;3.654;2023-01-16T10:53:00;1.10;;;1.00;;
36659;SDS011;22654;51.054;3.654;2023-01-16T10:55:26;1.45;;;1.00;;
36659;SDS011;22654;51.054;3.654;2023-01-16T10:57:52;0.80;;;0.80;;
36659;SDS011;22654;51.054;3.654;2023-01-16T11:00:27;2.25;;;0.80;;
36659;SDS011;22654;51.054;3.654;2023-01-16T11:03:01;0.93;;;0.85;;
36659;SDS011;22654;51.054;3.654;2023-01-16T11:05:40;0.77;;;0.77;;
36659;SDS011;22654;51.054;3.654;2023-01-16T11:10:40;0.77;;;0.77;;
36659;SDS011;22654;51.054;3.654;2023-01-16T11:13:19;0.90;;;0.90;;
36659;SDS011;22654;51.054;3.654;2023-01-16T11:16:17;1.45;;;0.80;;
36659;SDS011;22654;51.054;3.654;2023-01-16T11:21:53;0.98;;;0.98;;
36659;SDS011;22654;51.054;3.654;2023-01-16T11:24:22;1.73;;;0.88;;
36659;SDS011;22654;51.054;3.654;2023-01-16T11:26:55;0.80;;;0.80;;
36659;SDS011;22654;51.054;3.654;2023-01-16T11:29:24;0.90;;;0.90;;
36659;SDS011;22654;51.054;3.654;2023-01-16T11:31:54;1.83;;;0.82;;
36659;SDS011;22654;51.054;3.654;2023-01-16T11:34:24;1.05;;;0.70;;
36659;SDS011;22654;51.054;3.654;2023-01-16T11:36:55;1.50;;;0.90;;
36659;SDS011;22654;51.054;3.654;2023-01-16T11:39:25;2.45;;;0.98;;
36659;SDS011;22654;51.054;3.654;2023-01-16T11:41:56;0.95;;;0.95;;
36659;SDS011;22654;51.054;3.654;2023-01-16T11:44:47;1.05;;;1.05;;
36659;SDS011;22654;51.054;3.654;2023-01-16T11:47:32;0.93;;;0.93;;
36659;SDS011;22654;51.054;3.654;2023-01-16T11:50:51;1.52;;;1.10;;
36659;SDS011;22654;51.054;3.654;2023-01-16T11:53:01;1.65;;;1.33;;
36659;SDS011;22654;51.054;3.654;2023-01-16T11:55:36;0.88;;;0.88;;
36659;SDS011;22654;51.054;3.654;2023-01-16T11:58:11;1.10;;;1.00;;
36659;SDS011;22654;51.054;3.654;2023-01-16T12:03:32;1.23;;;0.88;;
36659;SDS011;22654;51.054;3.654;2023-01-16T12:09:41;5.72;;;1.42;;
36659;SDS011;22654;51.054;3.654;2023-01-16T12:12:16;0.80;;;0.80;;
36659;SDS011;22654;51.054;3.654;2023-01-16T12:15:15;2.05;;;1.27;;
36659;SDS011;22654;51.054;3.654;2023-01-16T12:17:57;1.58;;;1.30;;
36659;SDS011;22654;51.054;3.654;2023-01-16T12:21:06;1.20;;;1.10;;
36659;SDS011;22654;51.054;3.654;2023-01-16T12:37:12;1.60;;;1.40;;
36659;SDS011;22654;51.054;3.654;2023-01-16T12:48:07;1.92;;;1.60;;
36659;SDS011;22654;51.054;3.654;2023-01-16T12:58:51;1.83;;;1.55;;
36659;SDS011;22654;51.054;3.654;2023-01-16T13:01:42;1.92;;;1.42;;
36659;SDS011;22654;51.054;3.654;2023-01-16T13:06:51;1.50;;;1.40;;
36659;SDS011;22654;51.054;3.654;2023-01-16T13:09:32;1.95;;;1.52;;
36659;SDS011;22654;51.054;3.654;2023-01-16T13:12:22;1.55;;;1.45;;
36659;SDS011;22654;51.054;3.654;2023-01-16T13:15:12;3.58;;;1.45;;
36659;SDS011;22654;51.054;3.654;2023-01-16T13:17:47;3.83;;;2.60;;
36659;SDS011;22654;51.054;3.654;2023-01-16T13:20:16;3.88;;;2.45;;
36659;SDS011;22654;51.054;3.654;2023-01-16T13:22:50;4.35;;;2.55;;
36659;SDS011;22654;51.054;3.654;2023-01-16T13:25:40;2.67;;;1.95;;
36659;SDS011;22654;51.054;3.654;2023-01-16T13:28:14;3.35;;;1.70;;
36659;SDS011;22654;51.054;3.654;2023-01-16T13:31:05;3.47;;;2.10;;
36659;SDS011;22654;51.054;3.654;2023-01-16T13:33:41;2.33;;;2.10;;
36659;SDS011;22654;51.054;3.654;2023-01-16T13:41:39;3.72;;;1.92;;
36659;SDS011;22654;51.054;3.654;2023-01-16T13:47:04;3.08;;;2.42;;
36659;SDS011;22654;51.054;3.654;2023-01-16T13:49:36;3.92;;;2.35;;
36659;SDS011;22654;51.054;3.654;2023-01-16T13:52:11;2.25;;;2.03;;
36659;SDS011;22654;51.054;3.654;2023-01-16T13:54:44;2.47;;;2.28;;
36659;SDS011;22654;51.054;3.654;2023-01-16T13:57:17;3.95;;;2.70;;
36659;SDS011;22654;51.054;3.654;2023-01-16T14:02:22;1.80;;;1.70;;
36659;SDS011;22654;51.054;3.654;2023-01-16T14:10:42;3.25;;;2.58;;
36659;SDS011;22654;51.054;3.654;2023-01-16T14:21:02;3.15;;;2.85;;
36659;SDS011;22654;51.054;3.654;2023-01-16T14:23:31;2.10;;;2.00;;
36659;SDS011;22654;51.054;3.654;2023-01-16T14:26:21;1.98;;;1.75;;
36659;SDS011;22654;51.054;3.654;2023-01-16T14:31:54;1.90;;;1.75;;
36659;SDS011;22654;51.054;3.654;2023-01-16T14:34:27;2.20;;;2.00;;
36659;SDS011;22654;51.054;3.654;2023-01-16T14:37:05;1.83;;;1.73;;
36659;SDS011;22654;51.054;3.654;2023-01-16T14:39:46;2.40;;;2.15;;
36659;SDS011;22654;51.054;3.654;2023-01-16T14:42:27;1.83;;;1.73;;
36659;SDS011;22654;51.054;3.654;2023-01-16T14:54:06;1.63;;;1.52;;
36659;SDS011;22654;51.054;3.654;2023-01-16T14:56:53;1.95;;;1.50;;
36659;SDS011;22654;51.054;3.654;2023-01-16T14:59:30;2.50;;;1.38;;
36659;SDS011;22654;51.054;3.654;2023-01-16T15:02:08;1.42;;;1.33;;
36659;SDS011;22654;51.054;3.654;2023-01-16T15:04:51;2.42;;;1.50;;
36659;SDS011;22654;51.054;3.654;2023-01-16T15:10:11;4.15;;;1.10;;
36659;SDS011;22654;51.054;3.654;2023-01-16T15:13:21;3.95;;;1.35;;
36659;SDS011;22654;51.054;3.654;2023-01-16T15:15:47;3.72;;;1.55;;
36659;SDS011;22654;51.054;3.654;2023-01-16T15:18:19;2.67;;;1.73;;
36659;SDS011;22654;51.054;3.654;2023-01-16T15:21:14;1.77;;;1.50;;
36659;SDS011;22654;51.054;3.654;2023-01-16T15:24:00;1.92;;;1.20;;
36659;SDS011;22654;51.054;3.654;2023-01-16T15:26:35;1.20;;;1.10;;
36659;SDS011;22654;51.054;3.654;2023-01-16T15:29:21;6.07;;;1.67;;
36659;SDS011;22654;51.054;3.654;2023-01-16T15:32:10;2.67;;;1.58;;
36659;SDS011;22654;51.054;3.654;2023-01-16T15:34:42;5.70;;;1.65;;
36659;SDS011;22654;51.054;3.654;2023-01-16T15:37:27;1.27;;;1.17;;
36659;SDS011;22654;51.054;3.654;2023-01-16T15:39:54;1.58;;;1.42;;
36659;SDS011;22654;51.054;3.654;2023-01-16T15:42:24;2.55;;;0.98;;
36659;SDS011;22654;51.054;3.654;2023-01-16T15:53:13;3.30;;;1.00;;
36659;SDS011;22654;51.054;3.654;2023-01-16T15:55:42;4.97;;;1.70;;
36659;SDS011;22654;51.054;3.654;2023-01-16T15:58:19;5.25;;;1.45;;
36659;SDS011;22654;51.054;3.654;2023-01-16T16:01:01;3.63;;;1.30;;
36659;SDS011;22654;51.054;3.654;2023-01-16T16:03:30;3.22;;;1.05;;
36659;SDS011;22654;51.054;3.654;2023-01-16T16:06:12;11.13;;;1.73;;
36659;SDS011;22654;51.054;3.654;2023-01-16T16:08:44;3.22;;;1.55;;
36659;SDS011;22654;51.054;3.654;2023-01-16T16:11:21;4.07;;;1.63;;
36659;SDS011;22654;51.054;3.654;2023-01-16T16:14:41;6.45;;;1.35;;
36659;SDS011;22654;51.054;3.654;2023-01-16T16:17:22;2.47;;;1.20;;
36659;SDS011;22654;51.054;3.654;2023-01-16T16:22:53;4.72;;;2.28;;
36659;SDS011;22654;51.054;3.654;2023-01-16T16:28:21;5.93;;;1.67;;
36659;SDS011;22654;51.054;3.654;2023-01-16T16:30:59;5.93;;;1.60;;
36659;SDS011;22654;51.054;3.654;2023-01-16T16:33:37;2.47;;;1.58;;
36659;SDS011;22654;51.054;3.654;2023-01-16T16:36:05;5.68;;;1.60;;
36659;SDS011;22654;51.054;3.654;2023-01-16T16:38:40;4.70;;;1.70;;
36659;SDS011;22654;51.054;3.654;2023-01-16T16:43:41;3.92;;;1.67;;
36659;SDS011;22654;51.054;3.654;2023-01-16T16:48:50;5.28;;;1.65;;
36659;SDS011;22654;51.054;3.654;2023-01-16T16:51:21;4.72;;;1.67;;
36659;SDS011;22654;51.054;3.654;2023-01-16T16:53:57;3.13;;;1.45;;
36659;SDS011;22654;51.054;3.654;2023-01-16T16:56:25;2.70;;;1.40;;
36659;SDS011;22654;51.054;3.654;2023-01-16T16:58:54;1.73;;;1.40;;
36659;SDS011;22654;51.054;3.654;2023-01-16T17:01:21;1.83;;;1.55;;
36659;SDS011;22654;51.054;3.654;2023-01-16T17:03:50;3.53;;;1.85;;
36659;SDS011;22654;51.054;3.654;2023-01-16T17:06:26;3.53;;;1.42;;
36659;SDS011;22654;51.054;3.654;2023-01-16T17:08:55;2.92;;;1.75;;
36659;SDS011;22654;51.054;3.654;2023-01-16T17:11:21;5.55;;;2.10;;
36659;SDS011;22654;51.054;3.654;2023-01-16T17:13:48;7.95;;;2.50;;
36659;SDS011;22654;51.054;3.654;2023-01-16T17:16:18;10.07;;;2.22;;
36659;SDS011;22654;51.054;3.654;2023-01-16T17:18:46;4.95;;;2.08;;
36659;SDS011;22654;51.054;3.654;2023-01-16T17:21:14;9.23;;;3.65;;
36659;SDS011;22654;51.054;3.654;2023-01-16T17:23:42;11.13;;;2.83;;
36659;SDS011;22654;51.054;3.654;2023-01-16T17:26:08;13.35;;;3.22;;
36659;SDS011;22654;51.054;3.654;2023-01-16T17:28:37;8.95;;;2.13;;
36659;SDS011;22654;51.054;3.654;2023-01-16T17:31:04;8.27;;;2.33;;
36659;SDS011;22654;51.054;3.654;2023-01-16T17:33:42;11.20;;;2.78;;
36659;SDS011;22654;51.054;3.654;2023-01-16T17:36:27;17.65;;;4.60;;
36659;SDS011;22654;51.054;3.654;2023-01-16T17:38:53;16.67;;;3.72;;
36659;SDS011;22654;51.054;3.654;2023-01-16T17:41:20;12.52;;;3.45;;
36659;SDS011;22654;51.054;3.654;2023-01-16T17:43:56;6.07;;;2.20;;
36659;SDS011;22654;51.054;3.654;2023-01-16T17:46:41;12.23;;;2.95;;
36659;SDS011;22654;51.054;3.654;2023-01-16T17:49:07;4.57;;;3.17;;
36659;SDS011;22654;51.054;3.654;2023-01-16T17:51:33;7.68;;;2.47;;
36659;SDS011;22654;51.054;3.654;2023-01-16T17:53:59;7.20;;;2.67;;
36659;SDS011;22654;51.054;3.654;2023-01-16T17:56:25;15.15;;;6.22;;
36659;SDS011;22654;51.054;3.654;2023-01-16T17:58:52;8.20;;;3.33;;
36659;SDS011;22654;51.054;3.654;2023-01-16T18:01:24;6.68;;;2.35;;
36659;SDS011;22654;51.054;3.654;2023-01-16T18:03:55;7.50;;;2.03;;
36659;SDS011;22654;51.054;3.654;2023-01-16T18:06:22;5.70;;;2.53;;
36659;SDS011;22654;51.054;3.654;2023-01-16T18:08:52;8.18;;;2.65;;